Airfield :
LOGIN :

Register | Disclaimer

   EN    FR    IT 

 










Legend :    VFR   Marginal VFR   IFR   Intensive IFR   Very Intensive IFR
Visi :
Ceiling :
>= 8 km
>= 3000ft
5 to 8 km
1000 to 3000 ft
1500m to 5 km
500 to 1000 ft
800 to 1500m
200 to 500 ft
< 800m
< 200 ft
Symbols :   Thunderstorms  Fog  Heavy snow  Heavy precipitations  Wind > 20 kt
SIGMETs :     Misc.  Thunderstorms  Icing  Turbulence  Mountain Waves  Volcanic Ashes






- Airport Elevation : 1213 ft
- IATA code : SCQ


LEST - Santiago de Compostela

CURRENT METAR :
  • 220030Z 28003KT 250V330 6000 -RA SCT004 BKN009 13/12 Q1018 TEMPO RA

EXPIRED METARs :
  • 220000Z 29003KT 250V330 9999 SCT008 BKN030 13/12 Q1018 TEMPO RA
  • 212330Z 31003KT 280V340 9999 SCT009 BKN030 13/12 Q1018 TEMPO RA
  • 212300Z 32004KT 9999 SCT009 BKN030 13/12 Q1018 TEMPO RA
  • 212230Z 32004KT 9999 SCT014 BKN030 13/12 Q1018 TEMPO RA
  • 212200Z 32004KT 290V360 9999 SCT009 BKN025 13/12 Q1018 TEMPO RA

TAF TAF LEST
Valid from the 22 at 00:00 until the 23 at 00:00 UTC


212300Z 2200/2224 33009KT 9999 SCT010 BKN020 TX18/2215Z TN10/2206Z
TEMPO 2200/2207 3000 RA BR BKN005 BKN010
PROB30
TEMPO 2200/2207 0800 BCFG BKN002 BKN005



MET'MAP, your aeronautical weather chart ! - Copyright ORBIFLY December 2007 - Disclaimer

ORBIFLY MET'MAP TEAM :

Programming & Development : Alexandra Zaïnal
Concept & original design : Baudouin d'Aumeries
Assistance for programming : Marc-Olivier Méhu
Technical & hardware support : Manuel Goepfert

Contact : metmap@orbifly.com




SOURCES & CREDITS :

   NOAA